Oceanville, New Jersey
Current Conditions -  °F | °C
As of 6:54 AM on Thursday 23 Oct 2014 (Local Time) from KACY Reporting Station
Overcast Overcast  
Wind Chill: 51°   Ceiling: 2300
Heat Index: 51°   Visibility: 10mi
Dew Point: 48°   Wind: 15mph
Humidity: 89%   Direction: 320°NW
Pressure: 29.71"   Gusts: NA
Location:  39.47°N, 74.46°W
Report Text: KACY 231054Z 32013KT 10SM OVC023 11/09 A2971 RMK AO2 RAB33E42 SLP059 P0000 T01060089
Loading
Personal Weather Stations






























Interactive Weather Map
Tropical Storm Tracking
New forecast layout! Learn more

10-Day Weather Forecast

Advertisements
Track Severe Weather on mobile